Terminal Aerodrome Forecast
Issued by NWS

Home | Current Version | Previous Version | Text Only | Print | Product List | Glossary On
Versions: 1 2 3 4 5 6 7 8 9 10 11 12 13 14 15 16 17 18 19 20 21 22 23 24 25 26 27 28 29 30 31 32 33 34 35
982
FTUS41 KOKX 271146
TAFGON
TAF
KGON 271146Z 2712/2812 31006KT P6SM SCT025 OVC035
      TEMPO 2712/2714 OVC030
     FM271600 23007KT P6SM BKN040
     FM271800 20008KT P6SM BKN040
     FM272100 17007KT P6SM BKN040
     FM272200 13009KT P6SM BKN045
     FM280000 16006KT P6SM BKN045
     FM280400 13005KT P6SM BKN030
     FM280600 13005KT P6SM BKN020=

USA.gov is the U.S. government's official web portal to all federal, state and local government web resources and services.